sensor_id;sensor_type;location;lat;lon;timestamp;P1;durP1;ratioP1;P2;durP2;ratioP2
32347;SDS011;18821;44.800;10.326;2022-10-16T00:00:34;43.42;;;25.70;;
32347;SDS011;18821;44.800;10.326;2022-10-16T00:03:01;43.17;;;24.25;;
32347;SDS011;18821;44.800;10.326;2022-10-16T00:05:28;41.80;;;24.75;;
32347;SDS011;18821;44.800;10.326;2022-10-16T00:07:54;39.33;;;23.77;;
32347;SDS011;18821;44.800;10.326;2022-10-16T00:10:20;40.22;;;24.73;;
32347;SDS011;18821;44.800;10.326;2022-10-16T00:12:46;49.72;;;25.23;;
32347;SDS011;18821;44.800;10.326;2022-10-16T00:15:12;41.03;;;25.85;;
32347;SDS011;18821;44.800;10.326;2022-10-16T00:17:38;40.72;;;24.27;;
32347;SDS011;18821;44.800;10.326;2022-10-16T00:20:04;41.75;;;24.65;;
32347;SDS011;18821;44.800;10.326;2022-10-16T00:22:49;36.95;;;24.70;;
32347;SDS011;18821;44.800;10.326;2022-10-16T00:25:15;40.38;;;23.38;;
32347;SDS011;18821;44.800;10.326;2022-10-16T00:27:41;40.28;;;25.23;;
32347;SDS011;18821;44.800;10.326;2022-10-16T00:30:07;36.88;;;23.10;;
32347;SDS011;18821;44.800;10.326;2022-10-16T00:32:34;35.78;;;22.92;;
32347;SDS011;18821;44.800;10.326;2022-10-16T00:35:00;36.28;;;22.50;;
32347;SDS011;18821;44.800;10.326;2022-10-16T00:37:26;39.38;;;22.85;;
32347;SDS011;18821;44.800;10.326;2022-10-16T00:39:52;43.45;;;23.90;;
32347;SDS011;18821;44.800;10.326;2022-10-16T00:42:18;37.70;;;22.60;;
32347;SDS011;18821;44.800;10.326;2022-10-16T00:44:46;44.67;;;24.17;;
32347;SDS011;18821;44.800;10.326;2022-10-16T00:49:58;41.20;;;22.70;;
32347;SDS011;18821;44.800;10.326;2022-10-16T00:52:32;41.15;;;26.98;;
32347;SDS011;18821;44.800;10.326;2022-10-16T00:54:59;40.50;;;26.45;;
32347;SDS011;18821;44.800;10.326;2022-10-16T00:57:26;39.85;;;24.10;;
32347;SDS011;18821;44.800;10.326;2022-10-16T00:59:52;37.60;;;23.50;;
32347;SDS011;18821;44.800;10.326;2022-10-16T01:02:19;48.28;;;31.15;;
32347;SDS011;18821;44.800;10.326;2022-10-16T01:04:50;44.28;;;26.20;;
32347;SDS011;18821;44.800;10.326;2022-10-16T01:12:50;36.05;;;23.15;;
32347;SDS011;18821;44.800;10.326;2022-10-16T01:20:49;30.60;;;21.45;;
32347;SDS011;18821;44.800;10.326;2022-10-16T01:28:34;30.25;;;19.75;;
32347;SDS011;18821;44.800;10.326;2022-10-16T01:31:08;31.40;;;16.85;;
32347;SDS011;18821;44.800;10.326;2022-10-16T01:33:41;27.75;;;17.35;;
32347;SDS011;18821;44.800;10.326;2022-10-16T01:36:13;27.90;;;18.00;;
32347;SDS011;18821;44.800;10.326;2022-10-16T01:38:43;26.10;;;16.90;;
32347;SDS011;18821;44.800;10.326;2022-10-16T01:41:14;26.98;;;16.60;;
32347;SDS011;18821;44.800;10.326;2022-10-16T01:43:57;34.60;;;17.92;;
32347;SDS011;18821;44.800;10.326;2022-10-16T01:46:36;27.98;;;16.33;;
32347;SDS011;18821;44.800;10.326;2022-10-16T01:49:04;30.83;;;17.48;;
32347;SDS011;18821;44.800;10.326;2022-10-16T01:51:33;30.80;;;17.67;;
32347;SDS011;18821;44.800;10.326;2022-10-16T01:54:01;31.10;;;18.40;;
32347;SDS011;18821;44.800;10.326;2022-10-16T01:56:30;27.38;;;17.77;;
32347;SDS011;18821;44.800;10.326;2022-10-16T01:59:04;24.67;;;16.52;;
32347;SDS011;18821;44.800;10.326;2022-10-16T02:01:36;33.17;;;15.85;;
32347;SDS011;18821;44.800;10.326;2022-10-16T02:04:11;25.63;;;16.58;;
32347;SDS011;18821;44.800;10.326;2022-10-16T02:06:58;32.60;;;17.27;;
32347;SDS011;18821;44.800;10.326;2022-10-16T02:09:24;27.77;;;19.02;;
32347;SDS011;18821;44.800;10.326;2022-10-16T02:11:51;33.05;;;21.48;;
32347;SDS011;18821;44.800;10.326;2022-10-16T02:14:20;37.38;;;22.95;;
32347;SDS011;18821;44.800;10.326;2022-10-16T02:16:51;42.38;;;24.33;;
32347;SDS011;18821;44.800;10.326;2022-10-16T02:19:17;39.80;;;25.25;;
32347;SDS011;18821;44.800;10.326;2022-10-16T02:21:59;35.80;;;23.52;;
32347;SDS011;18821;44.800;10.326;2022-10-16T02:30:14;54.30;;;32.08;;
32347;SDS011;18821;44.800;10.326;2022-10-16T02:32:49;49.47;;;30.50;;
32347;SDS011;18821;44.800;10.326;2022-10-16T02:35:17;53.42;;;31.90;;
32347;SDS011;18821;44.800;10.326;2022-10-16T02:37:45;46.55;;;29.80;;
32347;SDS011;18821;44.800;10.326;2022-10-16T02:40:13;53.17;;;29.90;;
32347;SDS011;18821;44.800;10.326;2022-10-16T02:42:39;49.40;;;31.20;;
32347;SDS011;18821;44.800;10.326;2022-10-16T02:45:06;49.75;;;30.95;;
32347;SDS011;18821;44.800;10.326;2022-10-16T02:47:34;50.22;;;30.17;;
32347;SDS011;18821;44.800;10.326;2022-10-16T02:50:00;51.30;;;29.75;;
32347;SDS011;18821;44.800;10.326;2022-10-16T02:52:30;47.55;;;29.67;;
32347;SDS011;18821;44.800;10.326;2022-10-16T02:54:56;44.10;;;27.95;;
32347;SDS011;18821;44.800;10.326;2022-10-16T02:57:22;45.38;;;28.35;;
32347;SDS011;18821;44.800;10.326;2022-10-16T02:59:48;43.45;;;27.55;;
32347;SDS011;18821;44.800;10.326;2022-10-16T03:02:14;49.42;;;28.35;;
32347;SDS011;18821;44.800;10.326;2022-10-16T03:04:40;41.58;;;25.63;;
32347;SDS011;18821;44.800;10.326;2022-10-16T03:07:06;38.88;;;25.15;;
32347;SDS011;18821;44.800;10.326;2022-10-16T03:09:33;40.70;;;25.23;;
32347;SDS011;18821;44.800;10.326;2022-10-16T03:11:59;37.65;;;25.83;;
32347;SDS011;18821;44.800;10.326;2022-10-16T03:14:25;42.38;;;25.17;;
32347;SDS011;18821;44.800;10.326;2022-10-16T03:16:51;43.72;;;25.85;;
32347;SDS011;18821;44.800;10.326;2022-10-16T03:19:17;36.85;;;24.30;;
32347;SDS011;18821;44.800;10.326;2022-10-16T03:21:43;36.55;;;23.45;;
32347;SDS011;18821;44.800;10.326;2022-10-16T03:24:09;36.45;;;22.83;;
32347;SDS011;18821;44.800;10.326;2022-10-16T03:26:35;37.47;;;22.40;;
32347;SDS011;18821;44.800;10.326;2022-10-16T03:29:02;35.25;;;22.77;;
32347;SDS011;18821;44.800;10.326;2022-10-16T03:31:29;36.10;;;22.60;;
32347;SDS011;18821;44.800;10.326;2022-10-16T03:33:55;32.60;;;22.77;;
32347;SDS011;18821;44.800;10.326;2022-10-16T03:36:21;31.65;;;21.17;;
32347;SDS011;18821;44.800;10.326;2022-10-16T03:38:47;36.13;;;21.85;;
32347;SDS011;18821;44.800;10.326;2022-10-16T03:41:13;28.52;;;20.38;;
32347;SDS011;18821;44.800;10.326;2022-10-16T03:43:39;34.88;;;19.00;;
32347;SDS011;18821;44.800;10.326;2022-10-16T03:46:05;30.92;;;19.02;;
32347;SDS011;18821;44.800;10.326;2022-10-16T03:48:31;27.13;;;17.63;;
32347;SDS011;18821;44.800;10.326;2022-10-16T03:50:57;28.90;;;15.15;;
32347;SDS011;18821;44.800;10.326;2022-10-16T03:53:23;32.42;;;16.95;;
32347;SDS011;18821;44.800;10.326;2022-10-16T03:55:49;33.42;;;14.27;;
32347;SDS011;18821;44.800;10.326;2022-10-16T03:58:16;22.58;;;13.95;;
32347;SDS011;18821;44.800;10.326;2022-10-16T04:00:43;22.23;;;13.93;;
32347;SDS011;18821;44.800;10.326;2022-10-16T04:03:10;21.05;;;12.57;;
32347;SDS011;18821;44.800;10.326;2022-10-16T04:05:36;20.30;;;12.40;;
32347;SDS011;18821;44.800;10.326;2022-10-16T04:08:04;19.08;;;12.25;;
32347;SDS011;18821;44.800;10.326;2022-10-16T04:10:30;20.95;;;12.55;;
32347;SDS011;18821;44.800;10.326;2022-10-16T04:12:56;18.20;;;12.68;;
32347;SDS011;18821;44.800;10.326;2022-10-16T04:15:25;18.95;;;12.27;;
32347;SDS011;18821;44.800;10.326;2022-10-16T04:17:51;21.02;;;10.73;;
32347;SDS011;18821;44.800;10.326;2022-10-16T04:20:19;15.98;;;10.77;;
32347;SDS011;18821;44.800;10.326;2022-10-16T04:22:45;21.13;;;11.98;;
32347;SDS011;18821;44.800;10.326;2022-10-16T04:25:11;17.73;;;11.65;;
32347;SDS011;18821;44.800;10.326;2022-10-16T04:27:37;22.40;;;11.90;;
32347;SDS011;18821;44.800;10.326;2022-10-16T04:30:05;19.08;;;12.85;;
32347;SDS011;18821;44.800;10.326;2022-10-16T04:32:31;18.25;;;13.55;;
32347;SDS011;18821;44.800;10.326;2022-10-16T04:34:57;24.13;;;14.50;;
32347;SDS011;18821;44.800;10.326;2022-10-16T04:37:23;24.55;;;14.15;;
32347;SDS011;18821;44.800;10.326;2022-10-16T04:39:51;23.13;;;15.10;;
32347;SDS011;18821;44.800;10.326;2022-10-16T04:42:17;23.70;;;16.00;;
32347;SDS011;18821;44.800;10.326;2022-10-16T04:44:43;25.23;;;14.63;;
32347;SDS011;18821;44.800;10.326;2022-10-16T04:47:09;21.30;;;15.20;;
32347;SDS011;18821;44.800;10.326;2022-10-16T04:49:35;23.20;;;14.93;;
32347;SDS011;18821;44.800;10.326;2022-10-16T04:52:03;24.92;;;15.68;;
32347;SDS011;18821;44.800;10.326;2022-10-16T04:54:30;24.05;;;16.25;;
32347;SDS011;18821;44.800;10.326;2022-10-16T04:56:56;22.02;;;14.82;;
32347;SDS011;18821;44.800;10.326;2022-10-16T04:59:24;21.17;;;14.65;;
32347;SDS011;18821;44.800;10.326;2022-10-16T05:01:50;24.00;;;15.07;;
32347;SDS011;18821;44.800;10.326;2022-10-16T05:04:16;20.75;;;13.95;;
32347;SDS011;18821;44.800;10.326;2022-10-16T05:06:42;21.88;;;14.32;;
32347;SDS011;18821;44.800;10.326;2022-10-16T05:09:08;24.65;;;15.77;;
32347;SDS011;18821;44.800;10.326;2022-10-16T05:11:35;24.25;;;13.88;;
32347;SDS011;18821;44.800;10.326;2022-10-16T05:14:01;19.17;;;13.95;;
32347;SDS011;18821;44.800;10.326;2022-10-16T05:16:27;25.48;;;14.98;;
32347;SDS011;18821;44.800;10.326;2022-10-16T05:18:53;23.20;;;13.07;;
32347;SDS011;18821;44.800;10.326;2022-10-16T05:21:20;20.73;;;14.32;;
32347;SDS011;18821;44.800;10.326;2022-10-16T05:23:46;22.30;;;13.48;;
32347;SDS011;18821;44.800;10.326;2022-10-16T05:26:12;21.98;;;12.95;;
32347;SDS011;18821;44.800;10.326;2022-10-16T05:28:38;18.23;;;13.23;;
32347;SDS011;18821;44.800;10.326;2022-10-16T05:31:08;23.40;;;13.10;;
32347;SDS011;18821;44.800;10.326;2022-10-16T05:33:35;25.20;;;12.75;;
32347;SDS011;18821;44.800;10.326;2022-10-16T05:36:05;21.48;;;12.00;;
32347;SDS011;18821;44.800;10.326;2022-10-16T05:38:34;23.38;;;12.70;;
32347;SDS011;18821;44.800;10.326;2022-10-16T05:41:01;19.52;;;12.48;;
32347;SDS011;18821;44.800;10.326;2022-10-16T05:43:28;18.80;;;11.82;;
32347;SDS011;18821;44.800;10.326;2022-10-16T05:45:55;18.45;;;12.40;;
32347;SDS011;18821;44.800;10.326;2022-10-16T05:48:22;22.92;;;11.75;;
32347;SDS011;18821;44.800;10.326;2022-10-16T05:50:57;18.52;;;12.10;;
32347;SDS011;18821;44.800;10.326;2022-10-16T05:53:23;16.25;;;11.40;;
32347;SDS011;18821;44.800;10.326;2022-10-16T05:55:54;18.50;;;13.35;;
32347;SDS011;18821;44.800;10.326;2022-10-16T05:58:20;20.95;;;12.55;;
32347;SDS011;18821;44.800;10.326;2022-10-16T06:00:57;19.83;;;11.32;;
32347;SDS011;18821;44.800;10.326;2022-10-16T06:03:25;24.80;;;13.45;;
32347;SDS011;18821;44.800;10.326;2022-10-16T06:05:52;18.25;;;12.90;;
32347;SDS011;18821;44.800;10.326;2022-10-16T06:08:18;26.50;;;11.88;;
32347;SDS011;18821;44.800;10.326;2022-10-16T06:10:45;36.92;;;13.23;;
32347;SDS011;18821;44.800;10.326;2022-10-16T06:13:12;23.33;;;12.48;;
32347;SDS011;18821;44.800;10.326;2022-10-16T06:15:39;19.98;;;12.82;;
32347;SDS011;18821;44.800;10.326;2022-10-16T06:18:09;27.10;;;13.10;;
32347;SDS011;18821;44.800;10.326;2022-10-16T06:20:35;23.00;;;12.20;;
32347;SDS011;18821;44.800;10.326;2022-10-16T06:23:03;17.42;;;11.00;;
32347;SDS011;18821;44.800;10.326;2022-10-16T06:25:30;20.27;;;12.65;;
32347;SDS011;18821;44.800;10.326;2022-10-16T06:27:56;14.85;;;11.95;;
32347;SDS011;18821;44.800;10.326;2022-10-16T06:30:22;18.50;;;12.35;;
32347;SDS011;18821;44.800;10.326;2022-10-16T06:32:48;17.95;;;11.85;;
32347;SDS011;18821;44.800;10.326;2022-10-16T06:35:14;17.40;;;11.45;;
32347;SDS011;18821;44.800;10.326;2022-10-16T06:37:40;14.85;;;10.52;;
32347;SDS011;18821;44.800;10.326;2022-10-16T06:40:06;17.75;;;11.13;;
32347;SDS011;18821;44.800;10.326;2022-10-16T06:42:32;18.23;;;12.07;;
32347;SDS011;18821;44.800;10.326;2022-10-16T06:44:59;16.63;;;11.13;;
32347;SDS011;18821;44.800;10.326;2022-10-16T06:47:26;19.15;;;10.77;;
32347;SDS011;18821;44.800;10.326;2022-10-16T06:49:52;21.77;;;10.57;;
32347;SDS011;18821;44.800;10.326;2022-10-16T06:52:18;13.10;;;9.18;;
32347;SDS011;18821;44.800;10.326;2022-10-16T06:54:44;18.65;;;7.78;;
32347;SDS011;18821;44.800;10.326;2022-10-16T06:57:10;18.83;;;9.30;;
32347;SDS011;18821;44.800;10.326;2022-10-16T06:59:36;13.73;;;8.07;;
32347;SDS011;18821;44.800;10.326;2022-10-16T07:02:02;12.23;;;7.88;;
32347;SDS011;18821;44.800;10.326;2022-10-16T07:04:28;10.75;;;7.20;;
32347;SDS011;18821;44.800;10.326;2022-10-16T07:06:53;12.05;;;7.30;;
32347;SDS011;18821;44.800;10.326;2022-10-16T07:09:19;10.70;;;6.80;;
32347;SDS011;18821;44.800;10.326;2022-10-16T07:11:45;8.73;;;5.97;;
32347;SDS011;18821;44.800;10.326;2022-10-16T07:14:16;9.18;;;6.22;;
32347;SDS011;18821;44.800;10.326;2022-10-16T07:16:43;9.40;;;6.07;;
32347;SDS011;18821;44.800;10.326;2022-10-16T07:19:09;14.98;;;6.03;;
32347;SDS011;18821;44.800;10.326;2022-10-16T07:21:37;11.77;;;6.97;;
32347;SDS011;18821;44.800;10.326;2022-10-16T07:24:06;11.20;;;6.90;;
32347;SDS011;18821;44.800;10.326;2022-10-16T07:26:37;13.55;;;6.82;;
32347;SDS011;18821;44.800;10.326;2022-10-16T07:29:22;14.60;;;7.07;;
32347;SDS011;18821;44.800;10.326;2022-10-16T07:31:48;35.15;;;7.65;;
32347;SDS011;18821;44.800;10.326;2022-10-16T07:34:16;16.45;;;9.77;;
32347;SDS011;18821;44.800;10.326;2022-10-16T07:36:43;27.00;;;16.67;;
32347;SDS011;18821;44.800;10.326;2022-10-16T07:39:09;34.55;;;19.77;;
32347;SDS011;18821;44.800;10.326;2022-10-16T07:41:35;40.72;;;23.92;;
32347;SDS011;18821;44.800;10.326;2022-10-16T07:44:02;42.20;;;24.90;;
32347;SDS011;18821;44.800;10.326;2022-10-16T07:46:29;62.72;;;34.20;;
32347;SDS011;18821;44.800;10.326;2022-10-16T07:48:55;66.88;;;36.40;;
32347;SDS011;18821;44.800;10.326;2022-10-16T07:51:22;58.20;;;33.45;;
32347;SDS011;18821;44.800;10.326;2022-10-16T07:53:49;61.60;;;38.22;;
32347;SDS011;18821;44.800;10.326;2022-10-16T07:56:16;74.30;;;39.75;;
32347;SDS011;18821;44.800;10.326;2022-10-16T07:58:43;63.28;;;38.53;;
32347;SDS011;18821;44.800;10.326;2022-10-16T08:01:11;72.30;;;36.72;;
32347;SDS011;18821;44.800;10.326;2022-10-16T08:03:41;61.97;;;37.55;;
32347;SDS011;18821;44.800;10.326;2022-10-16T08:06:08;66.53;;;38.45;;
32347;SDS011;18821;44.800;10.326;2022-10-16T08:08:34;72.15;;;41.05;;
32347;SDS011;18821;44.800;10.326;2022-10-16T08:11:00;64.15;;;40.80;;
32347;SDS011;18821;44.800;10.326;2022-10-16T08:13:29;68.43;;;40.75;;
32347;SDS011;18821;44.800;10.326;2022-10-16T08:15:56;63.30;;;39.60;;
32347;SDS011;18821;44.800;10.326;2022-10-16T08:18:22;69.55;;;40.03;;
32347;SDS011;18821;44.800;10.326;2022-10-16T08:20:54;59.00;;;36.35;;
32347;SDS011;18821;44.800;10.326;2022-10-16T08:23:24;65.40;;;39.47;;
32347;SDS011;18821;44.800;10.326;2022-10-16T08:25:51;71.95;;;42.13;;
32347;SDS011;18821;44.800;10.326;2022-10-16T08:28:21;60.22;;;38.30;;
32347;SDS011;18821;44.800;10.326;2022-10-16T08:30:48;69.18;;;39.53;;
32347;SDS011;18821;44.800;10.326;2022-10-16T08:33:14;69.90;;;39.75;;
32347;SDS011;18821;44.800;10.326;2022-10-16T08:35:40;70.63;;;42.55;;
32347;SDS011;18821;44.800;10.326;2022-10-16T08:38:06;71.30;;;41.45;;
32347;SDS011;18821;44.800;10.326;2022-10-16T08:40:33;66.35;;;41.33;;
32347;SDS011;18821;44.800;10.326;2022-10-16T08:46:05;65.85;;;43.10;;
32347;SDS011;18821;44.800;10.326;2022-10-16T08:48:56;70.15;;;41.05;;
32347;SDS011;18821;44.800;10.326;2022-10-16T08:51:25;71.18;;;43.58;;
32347;SDS011;18821;44.800;10.326;2022-10-16T08:54:04;65.35;;;41.65;;
32347;SDS011;18821;44.800;10.326;2022-10-16T08:56:32;68.72;;;41.08;;
32347;SDS011;18821;44.800;10.326;2022-10-16T08:58:58;72.30;;;40.97;;
32347;SDS011;18821;44.800;10.326;2022-10-16T09:01:27;71.20;;;42.60;;
32347;SDS011;18821;44.800;10.326;2022-10-16T09:17:18;67.93;;;40.78;;
32347;SDS011;18821;44.800;10.326;2022-10-16T09:19:51;65.18;;;41.28;;
32347;SDS011;18821;44.800;10.326;2022-10-16T09:22:27;69.10;;;40.58;;
32347;SDS011;18821;44.800;10.326;2022-10-16T09:24:57;63.80;;;37.50;;
32347;SDS011;18821;44.800;10.326;2022-10-16T09:27:26;68.10;;;38.72;;
32347;SDS011;18821;44.800;10.326;2022-10-16T09:29:52;66.65;;;40.53;;
32347;SDS011;18821;44.800;10.326;2022-10-16T09:32:19;71.68;;;42.50;;
32347;SDS011;18821;44.800;10.326;2022-10-16T09:34:47;72.65;;;42.03;;
32347;SDS011;18821;44.800;10.326;2022-10-16T09:37:20;67.93;;;41.13;;
32347;SDS011;18821;44.800;10.326;2022-10-16T09:39:48;69.60;;;40.35;;
32347;SDS011;18821;44.800;10.326;2022-10-16T09:42:18;70.10;;;41.08;;
32347;SDS011;18821;44.800;10.326;2022-10-16T09:44:53;76.47;;;40.13;;
32347;SDS011;18821;44.800;10.326;2022-10-16T09:47:21;67.03;;;41.60;;
32347;SDS011;18821;44.800;10.326;2022-10-16T09:49:53;68.72;;;42.72;;
32347;SDS011;18821;44.800;10.326;2022-10-16T09:52:20;70.03;;;41.72;;
32347;SDS011;18821;44.800;10.326;2022-10-16T09:57:16;68.35;;;41.53;;
32347;SDS011;18821;44.800;10.326;2022-10-16T09:59:46;66.05;;;40.83;;
32347;SDS011;18821;44.800;10.326;2022-10-16T10:02:43;70.00;;;40.33;;
32347;SDS011;18821;44.800;10.326;2022-10-16T10:05:22;61.15;;;38.38;;
32347;SDS011;18821;44.800;10.326;2022-10-16T10:07:57;52.70;;;34.70;;
32347;SDS011;18821;44.800;10.326;2022-10-16T10:10:26;60.92;;;38.47;;
32347;SDS011;18821;44.800;10.326;2022-10-16T10:12:53;60.28;;;41.30;;
32347;SDS011;18821;44.800;10.326;2022-10-16T10:15:21;64.43;;;39.45;;
32347;SDS011;18821;44.800;10.326;2022-10-16T10:17:51;63.40;;;36.08;;
32347;SDS011;18821;44.800;10.326;2022-10-16T10:20:32;61.20;;;35.88;;
32347;SDS011;18821;44.800;10.326;2022-10-16T10:23:20;60.20;;;36.97;;
32347;SDS011;18821;44.800;10.326;2022-10-16T10:36:32;62.45;;;33.92;;
32347;SDS011;18821;44.800;10.326;2022-10-16T10:39:02;63.65;;;35.25;;
32347;SDS011;18821;44.800;10.326;2022-10-16T10:47:01;56.55;;;34.45;;
32347;SDS011;18821;44.800;10.326;2022-10-16T10:49:57;55.08;;;33.63;;
32347;SDS011;18821;44.800;10.326;2022-10-16T10:52:52;57.47;;;33.60;;
32347;SDS011;18821;44.800;10.326;2022-10-16T10:55:45;56.20;;;33.22;;
32347;SDS011;18821;44.800;10.326;2022-10-16T11:01:15;54.85;;;34.20;;
32347;SDS011;18821;44.800;10.326;2022-10-16T11:06:51;64.25;;;36.83;;
32347;SDS011;18821;44.800;10.326;2022-10-16T11:09:44;54.90;;;36.35;;
32347;SDS011;18821;44.800;10.326;2022-10-16T11:12:19;56.38;;;35.38;;
32347;SDS011;18821;44.800;10.326;2022-10-16T11:17:41;60.33;;;36.53;;
32347;SDS011;18821;44.800;10.326;2022-10-16T11:22:47;48.55;;;32.97;;
32347;SDS011;18821;44.800;10.326;2022-10-16T11:25:25;55.05;;;35.30;;
32347;SDS011;18821;44.800;10.326;2022-10-16T11:28:05;53.97;;;34.72;;
32347;SDS011;18821;44.800;10.326;2022-10-16T11:30:41;60.03;;;35.67;;
32347;SDS011;18821;44.800;10.326;2022-10-16T11:33:22;54.30;;;34.70;;
32347;SDS011;18821;44.800;10.326;2022-10-16T11:36:16;59.65;;;35.65;;
32347;SDS011;18821;44.800;10.326;2022-10-16T11:38:59;60.42;;;35.90;;
32347;SDS011;18821;44.800;10.326;2022-10-16T11:41:37;59.38;;;36.28;;
32347;SDS011;18821;44.800;10.326;2022-10-16T11:49:57;57.17;;;36.83;;
32347;SDS011;18821;44.800;10.326;2022-10-16T11:57:40;58.38;;;37.35;;
32347;SDS011;18821;44.800;10.326;2022-10-16T12:00:22;60.38;;;38.53;;
32347;SDS011;18821;44.800;10.326;2022-10-16T12:08:27;59.38;;;35.95;;
32347;SDS011;18821;44.800;10.326;2022-10-16T12:10:53;59.53;;;36.63;;
32347;SDS011;18821;44.800;10.326;2022-10-16T12:13:32;58.15;;;33.35;;
32347;SDS011;18821;44.800;10.326;2022-10-16T12:21:12;55.92;;;33.40;;
32347;SDS011;18821;44.800;10.326;2022-10-16T12:26:13;57.90;;;34.38;;
32347;SDS011;18821;44.800;10.326;2022-10-16T12:28:39;53.53;;;34.28;;
32347;SDS011;18821;44.800;10.326;2022-10-16T12:31:06;53.35;;;33.75;;
32347;SDS011;18821;44.800;10.326;2022-10-16T12:33:39;46.15;;;30.10;;
32347;SDS011;18821;44.800;10.326;2022-10-16T12:36:12;48.53;;;30.38;;
32347;SDS011;18821;44.800;10.326;2022-10-16T12:38:48;47.20;;;32.42;;
32347;SDS011;18821;44.800;10.326;2022-10-16T12:41:24;48.03;;;30.77;;
32347;SDS011;18821;44.800;10.326;2022-10-16T12:43:52;47.40;;;31.08;;
32347;SDS011;18821;44.800;10.326;2022-10-16T12:48:44;48.25;;;31.55;;
32347;SDS011;18821;44.800;10.326;2022-10-16T12:51:25;46.45;;;30.65;;
32347;SDS011;18821;44.800;10.326;2022-10-16T12:54:01;47.95;;;29.02;;
32347;SDS011;18821;44.800;10.326;2022-10-16T13:07:50;43.92;;;27.88;;
32347;SDS011;18821;44.800;10.326;2022-10-16T13:16:02;45.25;;;30.67;;
32347;SDS011;18821;44.800;10.326;2022-10-16T13:23:44;44.08;;;27.60;;
32347;SDS011;18821;44.800;10.326;2022-10-16T13:28:47;45.45;;;27.77;;
32347;SDS011;18821;44.800;10.326;2022-10-16T13:31:15;39.42;;;24.20;;
32347;SDS011;18821;44.800;10.326;2022-10-16T13:33:47;48.63;;;26.33;;
32347;SDS011;18821;44.800;10.326;2022-10-16T13:36:21;39.70;;;24.75;;
32347;SDS011;18821;44.800;10.326;2022-10-16T13:42:37;41.97;;;23.98;;
32347;SDS011;18821;44.800;10.326;2022-10-16T13:44:49;36.75;;;22.77;;
32347;SDS011;18821;44.800;10.326;2022-10-16T13:47:27;32.72;;;21.77;;
32347;SDS011;18821;44.800;10.326;2022-10-16T13:50:11;36.97;;;22.00;;
32347;SDS011;18821;44.800;10.326;2022-10-16T13:52:39;36.60;;;23.73;;
32347;SDS011;18821;44.800;10.326;2022-10-16T13:55:10;34.20;;;21.80;;
32347;SDS011;18821;44.800;10.326;2022-10-16T13:57:36;36.33;;;23.13;;
32347;SDS011;18821;44.800;10.326;2022-10-16T14:00:02;34.28;;;22.58;;
32347;SDS011;18821;44.800;10.326;2022-10-16T14:02:42;37.05;;;23.80;;
32347;SDS011;18821;44.800;10.326;2022-10-16T14:05:08;37.10;;;22.15;;
32347;SDS011;18821;44.800;10.326;2022-10-16T14:07:35;30.70;;;21.17;;
32347;SDS011;18821;44.800;10.326;2022-10-16T14:10:22;24.80;;;17.35;;
32347;SDS011;18821;44.800;10.326;2022-10-16T14:12:59;30.00;;;16.88;;
32347;SDS011;18821;44.800;10.326;2022-10-16T14:15:30;29.90;;;17.67;;
32347;SDS011;18821;44.800;10.326;2022-10-16T14:17:58;26.63;;;16.95;;
32347;SDS011;18821;44.800;10.326;2022-10-16T14:20:26;27.45;;;18.08;;
32347;SDS011;18821;44.800;10.326;2022-10-16T14:22:58;30.05;;;17.05;;
32347;SDS011;18821;44.800;10.326;2022-10-16T14:25:30;32.95;;;18.73;;
32347;SDS011;18821;44.800;10.326;2022-10-16T14:28:13;27.38;;;17.95;;
32347;SDS011;18821;44.800;10.326;2022-10-16T14:30:50;25.00;;;17.92;;
32347;SDS011;18821;44.800;10.326;2022-10-16T14:33:22;28.52;;;18.27;;
32347;SDS011;18821;44.800;10.326;2022-10-16T14:36:03;31.55;;;17.85;;
32347;SDS011;18821;44.800;10.326;2022-10-16T14:38:35;31.33;;;17.17;;
32347;SDS011;18821;44.800;10.326;2022-10-16T14:41:08;24.30;;;15.70;;
32347;SDS011;18821;44.800;10.326;2022-10-16T14:43:41;23.85;;;15.85;;
32347;SDS011;18821;44.800;10.326;2022-10-16T14:46:18;26.88;;;15.82;;
32347;SDS011;18821;44.800;10.326;2022-10-16T14:48:47;23.90;;;15.00;;
32347;SDS011;18821;44.800;10.326;2022-10-16T14:51:16;26.42;;;13.20;;
32347;SDS011;18821;44.800;10.326;2022-10-16T14:53:44;21.48;;;13.90;;
32347;SDS011;18821;44.800;10.326;2022-10-16T14:56:17;22.20;;;13.65;;
32347;SDS011;18821;44.800;10.326;2022-10-16T14:58:49;21.70;;;12.07;;
32347;SDS011;18821;44.800;10.326;2022-10-16T15:01:16;20.23;;;11.88;;
32347;SDS011;18821;44.800;10.326;2022-10-16T15:03:42;14.68;;;11.52;;
32347;SDS011;18821;44.800;10.326;2022-10-16T15:06:13;19.25;;;12.80;;
32347;SDS011;18821;44.800;10.326;2022-10-16T15:08:40;19.85;;;12.98;;
32347;SDS011;18821;44.800;10.326;2022-10-16T15:11:13;16.67;;;11.82;;
32347;SDS011;18821;44.800;10.326;2022-10-16T15:13:41;17.58;;;12.00;;
32347;SDS011;18821;44.800;10.326;2022-10-16T15:16:12;20.45;;;13.20;;
32347;SDS011;18821;44.800;10.326;2022-10-16T15:18:44;19.45;;;12.60;;
32347;SDS011;18821;44.800;10.326;2022-10-16T15:24:08;24.98;;;12.15;;
32347;SDS011;18821;44.800;10.326;2022-10-16T15:26:37;20.88;;;11.52;;
32347;SDS011;18821;44.800;10.326;2022-10-16T15:29:04;17.58;;;9.95;;
32347;SDS011;18821;44.800;10.326;2022-10-16T15:31:30;17.02;;;9.25;;
32347;SDS011;18821;44.800;10.326;2022-10-16T15:33:56;16.73;;;9.18;;
32347;SDS011;18821;44.800;10.326;2022-10-16T15:36:33;14.38;;;9.88;;
32347;SDS011;18821;44.800;10.326;2022-10-16T15:39:05;20.52;;;9.98;;
32347;SDS011;18821;44.800;10.326;2022-10-16T15:41:44;13.60;;;10.57;;
32347;SDS011;18821;44.800;10.326;2022-10-16T15:44:16;16.77;;;9.63;;
32347;SDS011;18821;44.800;10.326;2022-10-16T15:46:42;21.20;;;11.30;;
32347;SDS011;18821;44.800;10.326;2022-10-16T15:49:09;18.23;;;10.18;;
32347;SDS011;18821;44.800;10.326;2022-10-16T15:51:40;17.33;;;10.23;;
32347;SDS011;18821;44.800;10.326;2022-10-16T15:54:08;15.85;;;11.07;;
32347;SDS011;18821;44.800;10.326;2022-10-16T15:56:34;18.20;;;11.48;;
32347;SDS011;18821;44.800;10.326;2022-10-16T15:59:02;19.02;;;11.63;;
32347;SDS011;18821;44.800;10.326;2022-10-16T16:01:34;16.80;;;11.70;;
32347;SDS011;18821;44.800;10.326;2022-10-16T16:04:04;16.85;;;11.45;;
32347;SDS011;18821;44.800;10.326;2022-10-16T16:06:33;17.83;;;10.68;;
32347;SDS011;18821;44.800;10.326;2022-10-16T16:09:06;14.23;;;11.48;;
32347;SDS011;18821;44.800;10.326;2022-10-16T16:11:31;17.90;;;12.13;;
32347;SDS011;18821;44.800;10.326;2022-10-16T16:14:02;16.42;;;11.25;;
32347;SDS011;18821;44.800;10.326;2022-10-16T16:16:28;19.15;;;12.63;;
32347;SDS011;18821;44.800;10.326;2022-10-16T16:18:54;20.25;;;11.77;;
32347;SDS011;18821;44.800;10.326;2022-10-16T16:21:21;19.10;;;11.45;;
32347;SDS011;18821;44.800;10.326;2022-10-16T16:23:47;19.88;;;12.23;;
32347;SDS011;18821;44.800;10.326;2022-10-16T16:26:23;19.60;;;12.18;;
32347;SDS011;18821;44.800;10.326;2022-10-16T16:28:52;16.30;;;11.65;;
32347;SDS011;18821;44.800;10.326;2022-10-16T16:31:20;16.50;;;11.90;;
32347;SDS011;18821;44.800;10.326;2022-10-16T16:33:50;21.85;;;11.50;;